This is the latest recevied weather packets stored in our database for station/object eb1ayw-13. If no packets are shown the sender has not sent any weather packets the latest 10 day(s).
| Time | Temp. | Humidity | Pressure | Rain* | Wind** | Luminosity | Snow |
|---|---|---|---|---|---|---|---|
| 1777728057 | 46.11° C | 14% | 1002.2 hPa | - | - | - | - |
| 1777727458 | 44.44° C | 16% | 1002.7 hPa | - | - | - | - |
| 1777726858 | 44.44° C | 15% | 1002.8 hPa | - | - | - | - |
| 1777726257 | 47.78° C | 14% | 1002.3 hPa | - | - | - | - |
| 1777725657 | 45.56° C | 16% | 1002.8 hPa | - | - | - | - |
| 1777725057 | 46.11° C | 16% | 1002.8 hPa | - | - | - | - |
| 1777724458 | 45.56° C | 17% | 1003.2 hPa | - | - | - | - |
| 1777723857 | 46.11° C | 16% | 1003.3 hPa | - | - | - | - |
| 1777722659 | 43.33° C | 18% | 1004.1 hPa | - | - | - | - |
| 1777722057 | 40° C | 20% | 1005 hPa | - | - | - | - |
| 1777721458 | 42.22° C | 17% | 1004.4 hPa | - | - | - | - |
| 1777720857 | 42.78° C | 19% | 1004.3 hPa | - | - | - | - |
| 1777720257 | 45° C | 19% | 1003.9 hPa | - | - | - | - |
| 1777719657 | 46.11° C | 16% | 1003.6 hPa | - | - | - | - |
| 1777719058 | 42.22° C | 20% | 1004.7 hPa | - | - | - | - |
| 1777718457 | 42.22° C | 20% | 1004.5 hPa | - | - | - | - |
| 1777717857 | 45° C | 17% | 1004.1 hPa | - | - | - | - |
| 1777717257 | 43.89° C | 19% | 1004.3 hPa | - | - | - | - |
| 1777716657 | 47.22° C | 17% | 1003.8 hPa | - | - | - | - |
| 1777716057 | 41.67° C | 21% | 1005.3 hPa | - | - | - | - |
| 1777715457 | 44.44° C | 18% | 1004.7 hPa | - | - | - | - |
| 1777714857 | 42.78° C | 19% | 1005.2 hPa | - | - | - | - |
| 1777714257 | 45° C | 18% | 1004.7 hPa | - | - | - | - |
| 1777713657 | 46.11° C | 18% | 1004.6 hPa | - | - | - | - |
| 1777713057 | 43.89° C | 19% | 1005.2 hPa | - | - | - | - |
* Rain since midnight (hover to see other rain measurements)
** Current wind speed in m/s (hover to see current wind gust speed)